createdAt,value
2022-09-26T00:02:16.345Z,11.80
2022-09-26T00:04:46.334Z,9.73
2022-09-26T00:07:16.496Z,8.65
2022-09-26T00:09:46.618Z,12.20
2022-09-26T00:12:17.502Z,10.88
2022-09-26T00:14:47.742Z,8.93
2022-09-26T00:17:17.751Z,8.38
2022-09-26T00:19:48.238Z,9.68
2022-09-26T00:22:18.446Z,8.45
2022-09-26T00:24:48.402Z,8.80
2022-09-26T00:27:18.457Z,8.05
2022-09-26T00:29:48.608Z,10.27
2022-09-26T00:32:18.844Z,8.75
2022-09-26T00:34:49.724Z,8.38
2022-09-26T00:37:20.218Z,8.82
2022-09-26T00:39:50.541Z,9.20
2022-09-26T00:42:20.794Z,8.30
2022-09-26T00:44:51.715Z,12.98
2022-09-26T00:47:41.872Z,7.97
2022-09-26T00:50:15.255Z,9.73
2022-09-26T00:55:15.523Z,21.45
2022-09-26T00:57:54.511Z,13.48
2022-09-26T01:00:24.979Z,21.15
2022-09-26T01:02:55.289Z,20.65
2022-09-26T01:05:28.577Z,17.83
2022-09-26T01:10:29.441Z,21.80
2022-09-26T01:13:02.207Z,16.02
2022-09-26T01:15:32.486Z,21.00
2022-09-26T01:18:02.415Z,15.32
2022-09-26T01:20:51.911Z,15.75
2022-09-26T01:23:52.622Z,19.13
2022-09-26T01:26:48.599Z,12.88
2022-09-26T01:29:46.232Z,12.80
2022-09-26T01:32:44.338Z,14.15
2022-09-26T01:35:33.223Z,16.88
2022-09-26T01:38:15.221Z,12.35
2022-09-26T01:41:00.611Z,15.75
2022-09-26T01:43:30.582Z,13.38
2022-09-26T01:46:02.463Z,14.38
2022-09-26T01:48:49.658Z,9.60
2022-09-26T01:51:31.880Z,10.55
2022-09-26T01:54:12.521Z,10.47
2022-09-26T01:56:42.602Z,11.35
2022-09-26T01:59:40.657Z,10.82
2022-09-26T02:02:15.093Z,11.80
2022-09-26T02:04:45.181Z,12.25
2022-09-26T02:07:22.431Z,12.77
2022-09-26T02:10:04.554Z,13.07
2022-09-26T02:12:37.752Z,15.13
2022-09-26T02:15:12.920Z,15.07
2022-09-26T02:17:45.719Z,14.40
2022-09-26T02:20:24.397Z,13.57
2022-09-26T02:22:54.408Z,14.10
2022-09-26T02:25:27.249Z,12.23
2022-09-26T02:27:57.416Z,10.82
2022-09-26T02:30:28.404Z,12.23
2022-09-26T02:32:58.549Z,10.95
2022-09-26T02:35:46.791Z,13.88
2022-09-26T02:38:18.603Z,11.90
2022-09-26T02:41:09.259Z,14.75
2022-09-26T02:44:17.881Z,20.20
2022-09-26T02:47:18.129Z,9.40
2022-09-26T02:50:10.059Z,10.02
2022-09-26T02:52:58.584Z,11.63
2022-09-26T02:55:49.304Z,10.43
2022-09-26T02:58:28.456Z,9.80
2022-09-26T03:01:17.190Z,11.90
2022-09-26T03:04:03.767Z,12.82
2022-09-26T03:06:39.589Z,12.98
2022-09-26T03:09:09.626Z,12.77
2022-09-26T03:11:39.577Z,13.93
2022-09-26T03:14:10.729Z,12.18
2022-09-26T03:16:43.265Z,9.50
2022-09-26T03:19:20.882Z,12.40
2022-09-26T03:21:50.963Z,9.82
2022-09-26T03:24:20.948Z,12.13
2022-09-26T03:26:51.782Z,12.50
2022-09-26T03:29:21.846Z,12.65
2022-09-26T03:31:51.834Z,10.57
2022-09-26T03:34:23.253Z,14.15
2022-09-26T03:36:53.955Z,9.95
2022-09-26T03:39:25.046Z,10.55
2022-09-26T03:42:03.841Z,13.13
2022-09-26T03:44:34.470Z,9.73
2022-09-26T03:47:07.246Z,12.00
2022-09-26T03:49:42.855Z,15.88
2022-09-26T03:52:14.456Z,9.75
2022-09-26T03:54:46.568Z,9.85
2022-09-26T03:57:18.601Z,10.40
2022-09-26T04:00:04.877Z,10.93
2022-09-26T04:02:46.006Z,12.43
2022-09-26T04:05:29.735Z,11.02
2022-09-26T04:08:01.863Z,11.23
2022-09-26T04:10:33.908Z,9.82
2022-09-26T04:13:04.355Z,13.38
2022-09-26T04:15:35.776Z,14.50
2022-09-26T04:18:09.564Z,22.00
2022-09-26T04:20:39.642Z,24.60
2022-09-26T04:23:09.612Z,33.92
2022-09-26T04:25:39.742Z,34.35
2022-09-26T04:28:09.679Z,41.45
2022-09-26T04:30:40.322Z,45.30
2022-09-26T04:33:11.805Z,48.03
2022-09-26T04:35:47.745Z,53.42
2022-09-26T04:38:19.805Z,54.50
2022-09-26T04:40:52.110Z,49.20
2022-09-26T04:43:22.525Z,54.35
2022-09-26T04:45:52.605Z,55.05
2022-09-26T04:48:22.870Z,51.47
2022-09-26T04:51:01.072Z,55.92
2022-09-26T04:53:31.623Z,46.70
2022-09-26T04:56:16.702Z,46.13
2022-09-26T04:58:47.964Z,40.90
2022-09-26T05:01:20.651Z,41.80
2022-09-26T05:04:03.790Z,39.35
2022-09-26T05:06:36.530Z,41.72
2022-09-26T05:11:48.526Z,36.63
2022-09-26T05:14:19.914Z,36.22
2022-09-26T05:16:51.759Z,41.05
2022-09-26T05:19:22.661Z,36.58
2022-09-26T05:22:18.853Z,41.17
2022-09-26T05:25:07.350Z,36.60
2022-09-26T05:27:39.145Z,29.55
2022-09-26T05:30:10.094Z,29.27
2022-09-26T05:32:41.349Z,24.33
2022-09-26T05:35:13.368Z,25.27
2022-09-26T05:37:44.704Z,24.20
2022-09-26T05:40:34.839Z,34.85
2022-09-26T05:43:05.685Z,25.92
2022-09-26T05:45:36.557Z,23.55
2022-09-26T05:48:06.986Z,32.10
2022-09-26T05:50:41.647Z,40.00
2022-09-26T05:53:14.167Z,27.55
2022-09-26T05:55:53.054Z,30.17
2022-09-26T05:58:36.184Z,30.25
2022-09-26T06:01:41.091Z,31.42
2022-09-26T06:04:24.187Z,27.98
2022-09-26T06:07:14.746Z,37.55
2022-09-26T06:09:45.816Z,32.83
2022-09-26T06:12:27.598Z,28.63
2022-09-26T06:14:59.095Z,32.45
2022-09-26T06:17:29.745Z,34.60
2022-09-26T06:19:59.785Z,37.17
2022-09-26T06:22:30.444Z,35.13
2022-09-26T06:25:00.710Z,28.67
2022-09-26T06:27:30.648Z,28.88
2022-09-26T06:30:00.957Z,27.98
2022-09-26T06:32:33.017Z,32.25
2022-09-26T06:35:20.788Z,28.90
2022-09-26T06:38:11.161Z,23.50
2022-09-26T06:40:41.418Z,30.25
2022-09-26T06:43:11.430Z,26.67
2022-09-26T06:45:59.669Z,25.30
2022-09-26T06:48:40.553Z,26.52
2022-09-26T06:51:28.960Z,22.33
2022-09-26T06:54:01.687Z,23.30
2022-09-26T06:56:31.720Z,21.65
2022-09-26T06:59:01.873Z,16.63
2022-09-26T07:01:35.584Z,20.88
2022-09-26T07:04:12.542Z,20.75
2022-09-26T07:07:07.806Z,19.42
2022-09-26T07:09:38.116Z,19.67
2022-09-26T07:12:28.082Z,24.23
2022-09-26T07:15:01.696Z,25.15
2022-09-26T07:17:33.107Z,17.98
2022-09-26T07:20:06.446Z,22.38
2022-09-26T07:22:55.087Z,20.58
2022-09-26T07:25:25.556Z,25.15
2022-09-26T07:27:55.686Z,25.52
2022-09-26T07:30:39.282Z,23.85
2022-09-26T07:33:16.075Z,19.75
2022-09-26T07:35:52.439Z,16.08
2022-09-26T07:38:24.277Z,21.40
2022-09-26T07:40:56.676Z,22.77
2022-09-26T07:43:53.560Z,23.52
2022-09-26T07:46:38.612Z,28.55
2022-09-26T07:49:27.175Z,29.33
2022-09-26T07:52:13.027Z,24.40
2022-09-26T07:54:57.453Z,23.83
2022-09-26T07:58:00.561Z,27.33
2022-09-26T08:00:36.788Z,27.83
2022-09-26T08:03:30.000Z,23.35
2022-09-26T08:06:03.185Z,28.55
2022-09-26T08:08:33.380Z,32.33
2022-09-26T08:11:04.434Z,26.55
2022-09-26T08:13:40.388Z,18.73
2022-09-26T08:16:21.793Z,26.13
2022-09-26T08:18:55.239Z,24.02
2022-09-26T08:21:27.106Z,21.73
2022-09-26T08:24:00.133Z,22.17
2022-09-26T08:26:51.803Z,22.27
2022-09-26T08:29:26.951Z,26.13
2022-09-26T08:31:59.399Z,27.55
2022-09-26T08:34:29.504Z,28.00
2022-09-26T08:37:17.466Z,19.60
2022-09-26T08:40:10.805Z,23.08
2022-09-26T08:43:55.181Z,23.92
2022-09-26T08:47:01.508Z,21.77
2022-09-26T08:50:02.224Z,15.13
2022-09-26T08:52:37.906Z,13.75
2022-09-26T08:55:14.163Z,15.48
2022-09-26T08:57:48.696Z,21.15
2022-09-26T09:00:23.738Z,18.58
2022-09-26T09:03:23.614Z,16.05
2022-09-26T09:06:08.947Z,19.40
2022-09-26T09:08:59.386Z,25.45
2022-09-26T09:12:07.047Z,24.98
2022-09-26T09:15:13.699Z,20.02
2022-09-26T09:18:37.328Z,24.02
2022-09-26T09:21:39.386Z,23.10
2022-09-26T09:24:53.479Z,23.40
2022-09-26T09:27:55.463Z,21.23
2022-09-26T09:30:42.601Z,22.67
2022-09-26T09:34:01.677Z,17.35
2022-09-26T09:36:52.108Z,15.63
2022-09-26T09:39:47.073Z,12.02
2022-09-26T09:42:50.317Z,10.98
2022-09-26T09:45:31.740Z,9.05
2022-09-26T09:48:01.830Z,14.40
2022-09-26T09:50:50.216Z,13.10
2022-09-26T09:53:29.978Z,13.63
2022-09-26T09:56:12.670Z,11.65
2022-09-26T09:59:04.919Z,17.10
2022-09-26T10:01:50.273Z,14.68
2022-09-26T10:04:31.207Z,14.65
2022-09-26T10:07:02.988Z,18.38
2022-09-26T10:09:40.515Z,19.13
2022-09-26T10:12:34.099Z,13.05
2022-09-26T10:15:25.954Z,15.30
2022-09-26T10:18:26.431Z,13.40
2022-09-26T10:21:17.339Z,14.65
2022-09-26T10:23:53.363Z,12.52
2022-09-26T10:26:40.631Z,12.02
2022-09-26T10:29:24.507Z,13.27
2022-09-26T10:32:01.738Z,14.60
2022-09-26T10:34:36.467Z,13.55
2022-09-26T10:37:26.944Z,9.93
2022-09-26T10:40:41.592Z,11.95
2022-09-26T10:43:34.035Z,9.32
2022-09-26T10:46:11.566Z,10.13
2022-09-26T10:49:03.321Z,14.20
2022-09-26T10:51:43.648Z,12.00
2022-09-26T10:54:18.240Z,15.35
2022-09-26T10:56:51.952Z,11.30
2022-09-26T10:59:27.869Z,9.70
2022-09-26T11:02:00.426Z,13.77
2022-09-26T11:04:50.989Z,6.75
2022-09-26T11:07:43.922Z,10.18
2022-09-26T11:10:34.698Z,7.28
2022-09-26T11:13:22.152Z,9.55
2022-09-26T11:16:04.255Z,9.15
2022-09-26T11:18:46.339Z,12.57
2022-09-26T11:21:38.522Z,13.63
2022-09-26T11:24:46.947Z,11.70
2022-09-26T11:27:37.328Z,12.52
2022-09-26T11:30:22.575Z,13.13
2022-09-26T11:33:09.760Z,11.40
2022-09-26T11:36:30.650Z,15.48
2022-09-26T11:39:08.153Z,17.42
2022-09-26T11:41:54.232Z,17.52
2022-09-26T11:44:27.068Z,12.80
2022-09-26T11:47:56.037Z,16.88
2022-09-26T11:51:03.759Z,25.58
2022-09-26T11:53:43.504Z,21.30
2022-09-26T11:56:28.468Z,19.13
2022-09-26T11:59:43.857Z,24.13
2022-09-26T12:02:43.121Z,33.70
2022-09-26T12:05:50.221Z,44.40
2022-09-26T12:08:27.663Z,38.35
2022-09-26T12:11:17.724Z,41.03
2022-09-26T12:14:01.886Z,47.90
2022-09-26T12:16:59.783Z,40.70
2022-09-26T12:19:33.651Z,43.30
2022-09-26T12:22:30.734Z,44.58
2022-09-26T12:25:23.969Z,38.20
2022-09-26T12:28:13.149Z,42.03
2022-09-26T12:31:01.974Z,43.97
2022-09-26T12:33:41.442Z,37.42
2022-09-26T12:36:26.572Z,39.05
2022-09-26T12:39:23.259Z,41.53
2022-09-26T12:42:18.135Z,39.65
2022-09-26T12:44:58.811Z,39.90
2022-09-26T12:47:46.296Z,40.90
2022-09-26T12:50:41.115Z,43.60
2022-09-26T12:53:27.176Z,37.97
2022-09-26T12:56:08.213Z,47.65
2022-09-26T12:58:38.198Z,49.08
2022-09-26T13:01:28.805Z,50.40
2022-09-26T13:04:14.561Z,52.15
2022-09-26T13:07:17.657Z,45.25
2022-09-26T13:10:20.919Z,48.50
2022-09-26T13:13:24.510Z,46.60
2022-09-26T13:16:14.328Z,44.03
2022-09-26T13:18:49.352Z,36.83
2022-09-26T13:21:47.829Z,43.63
2022-09-26T13:24:26.308Z,47.22
2022-09-26T13:27:01.814Z,44.60
2022-09-26T13:29:34.931Z,41.28
2022-09-26T13:32:24.049Z,50.90
2022-09-26T13:35:03.880Z,41.10
2022-09-26T13:38:11.334Z,40.80
2022-09-26T13:40:59.371Z,38.53
2022-09-26T13:43:58.130Z,42.72
2022-09-26T13:47:03.001Z,38.17
2022-09-26T13:49:52.312Z,47.08
2022-09-26T13:52:28.902Z,39.75
2022-09-26T13:55:05.297Z,49.20
2022-09-26T13:58:08.103Z,49.20
2022-09-26T14:00:42.089Z,50.90
2022-09-26T14:03:15.231Z,46.85
2022-09-26T14:08:45.384Z,43.63
2022-09-26T14:11:18.319Z,39.40
2022-09-26T14:13:50.560Z,50.75
2022-09-26T14:16:33.268Z,42.35
2022-09-26T14:19:16.362Z,43.15
2022-09-26T14:22:31.303Z,44.58
2022-09-26T14:25:03.280Z,34.65
2022-09-26T14:27:39.529Z,36.05
2022-09-26T14:30:25.738Z,40.38
2022-09-26T14:33:02.913Z,37.00
2022-09-26T14:35:41.719Z,37.55
2022-09-26T14:38:18.378Z,34.05
2022-09-26T14:40:56.230Z,37.20
2022-09-26T14:43:26.873Z,39.90
2022-09-26T14:46:17.265Z,30.52
2022-09-26T14:48:47.349Z,34.10
2022-09-26T14:51:17.658Z,33.78
2022-09-26T14:53:50.357Z,34.28
2022-09-26T14:56:33.768Z,29.85
2022-09-26T14:59:22.185Z,29.30
2022-09-26T15:01:52.663Z,31.00
2022-09-26T15:04:31.067Z,34.10
2022-09-26T15:07:04.713Z,34.30
2022-09-26T15:10:03.720Z,27.55
2022-09-26T15:12:41.221Z,25.95
2022-09-26T15:15:32.746Z,26.52
2022-09-26T15:18:12.934Z,24.45
2022-09-26T15:20:45.954Z,27.45
2022-09-26T15:23:30.178Z,29.50
2022-09-26T15:26:04.103Z,27.20
2022-09-26T15:28:36.008Z,33.60
2022-09-26T15:31:29.188Z,38.75
2022-09-26T15:34:11.192Z,40.20
2022-09-26T15:36:41.422Z,33.15
2022-09-26T15:39:33.242Z,37.42
2022-09-26T15:42:45.481Z,30.58
2022-09-26T15:45:27.294Z,29.42
2022-09-26T15:47:58.634Z,35.60
2022-09-26T15:50:36.577Z,33.15
2022-09-26T15:53:26.020Z,29.08
2022-09-26T15:56:24.132Z,32.60
2022-09-26T15:59:04.918Z,28.30
2022-09-26T16:01:34.936Z,29.85
2022-09-26T16:04:17.760Z,34.13
2022-09-26T16:06:57.517Z,28.15
2022-09-26T16:09:41.322Z,31.13
2022-09-26T16:12:31.487Z,26.77
2022-09-26T16:15:06.246Z,27.08
2022-09-26T16:17:39.876Z,29.60
2022-09-26T16:20:18.938Z,28.83
2022-09-26T16:22:54.690Z,35.08
2022-09-26T16:25:28.002Z,25.58
2022-09-26T16:30:32.130Z,24.95
2022-09-26T16:33:05.026Z,26.77
2022-09-26T16:35:36.006Z,22.85
2022-09-26T16:38:24.173Z,32.63
2022-09-26T16:40:55.949Z,23.30
2022-09-26T16:43:30.737Z,23.85
2022-09-26T16:46:10.612Z,24.05
2022-09-26T16:48:54.809Z,19.50
2022-09-26T16:51:36.336Z,21.58
2022-09-26T16:54:22.910Z,24.58
2022-09-26T16:56:52.985Z,21.48
2022-09-26T16:59:33.496Z,19.40
2022-09-26T17:02:03.914Z,22.30
2022-09-26T17:04:35.704Z,20.92
2022-09-26T17:07:16.221Z,28.92
2022-09-26T17:09:46.155Z,18.80
2022-09-26T17:12:20.785Z,19.48
2022-09-26T17:14:52.968Z,20.20
2022-09-26T17:17:26.047Z,22.92
2022-09-26T17:19:59.653Z,21.92
2022-09-26T17:22:29.829Z,20.42
2022-09-26T17:25:00.275Z,18.45
2022-09-26T17:27:33.655Z,22.17
2022-09-26T17:32:38.469Z,16.83
2022-09-26T17:35:28.417Z,20.88
2022-09-26T17:37:58.367Z,17.88
2022-09-26T17:40:30.679Z,21.88
2022-09-26T17:43:02.250Z,17.83
2022-09-26T17:45:33.751Z,20.27
2022-09-26T17:48:05.996Z,18.42
2022-09-26T17:50:36.631Z,19.95
2022-09-26T17:53:08.949Z,19.38
2022-09-26T17:55:38.881Z,18.85
2022-09-26T17:58:11.838Z,17.80
2022-09-26T18:00:42.276Z,18.95
2022-09-26T18:03:26.071Z,17.35
2022-09-26T18:05:56.129Z,19.48
2022-09-26T18:08:31.028Z,16.95
2022-09-26T18:11:12.459Z,17.25
2022-09-26T18:13:48.606Z,19.50
2022-09-26T18:16:18.624Z,19.38
2022-09-26T18:18:49.163Z,16.55
2022-09-26T18:21:21.095Z,20.35
2022-09-26T18:23:58.468Z,17.20
2022-09-26T18:26:33.474Z,18.15
2022-09-26T18:29:07.546Z,20.17
2022-09-26T18:31:40.382Z,16.85
2022-09-26T18:34:19.865Z,19.25
2022-09-26T18:36:51.342Z,18.27
2022-09-26T18:39:22.407Z,18.90
2022-09-26T18:41:56.006Z,16.83
2022-09-26T18:44:25.937Z,20.63
2022-09-26T18:47:01.854Z,15.40
2022-09-26T18:49:33.511Z,15.07
2022-09-26T18:52:03.836Z,16.50
2022-09-26T18:54:34.001Z,16.02
2022-09-26T18:57:22.347Z,15.63
2022-09-26T18:59:52.319Z,15.77
2022-09-26T19:02:41.792Z,16.42
2022-09-26T19:05:13.187Z,17.33
2022-09-26T19:07:45.805Z,15.43
2022-09-26T19:10:17.532Z,17.17
2022-09-26T19:12:48.010Z,12.88
2022-09-26T19:15:18.104Z,15.27
2022-09-26T19:17:49.479Z,17.83
2022-09-26T19:20:19.464Z,20.63
2022-09-26T19:22:49.415Z,16.20
2022-09-26T19:25:19.484Z,17.70
2022-09-26T19:27:54.529Z,13.02
2022-09-26T19:30:24.671Z,14.52
2022-09-26T19:32:55.284Z,18.38
2022-09-26T19:35:32.856Z,14.55
2022-09-26T19:38:03.632Z,16.70
2022-09-26T19:40:33.865Z,17.30
2022-09-26T19:43:05.685Z,16.55
2022-09-26T19:45:36.754Z,15.55
2022-09-26T19:48:06.990Z,14.25
2022-09-26T19:50:37.135Z,14.77
2022-09-26T19:53:25.910Z,15.77
2022-09-26T19:55:56.940Z,14.85
2022-09-26T19:58:28.962Z,18.38
2022-09-26T20:01:00.393Z,12.27
2022-09-26T20:03:41.065Z,17.52
2022-09-26T20:06:26.874Z,16.20
2022-09-26T20:09:01.682Z,14.52
2022-09-26T20:11:31.981Z,18.45
2022-09-26T20:14:20.212Z,18.20
2022-09-26T20:16:51.217Z,13.23
2022-09-26T20:19:29.616Z,17.40
2022-09-26T20:22:01.238Z,14.68
2022-09-26T20:24:32.856Z,16.90
2022-09-26T20:27:03.983Z,20.55
2022-09-26T20:29:53.740Z,13.48
2022-09-26T20:32:23.655Z,13.00
2022-09-26T20:34:53.696Z,16.25
2022-09-26T20:37:24.921Z,14.43
2022-09-26T20:39:55.044Z,15.60
2022-09-26T20:42:29.161Z,13.93
2022-09-26T20:44:59.269Z,13.07
2022-09-26T20:47:29.196Z,15.60
2022-09-26T20:50:00.921Z,18.27
2022-09-26T20:52:31.571Z,13.13
2022-09-26T20:55:01.576Z,13.55
2022-09-26T20:57:31.492Z,15.48
2022-09-26T21:00:01.439Z,15.18
2022-09-26T21:02:40.836Z,15.07
2022-09-26T21:05:25.767Z,16.25
2022-09-26T21:07:59.307Z,14.90
2022-09-26T21:13:00.572Z,15.65
2022-09-26T21:15:31.897Z,14.88
2022-09-26T21:18:03.309Z,14.20
2022-09-26T21:20:35.109Z,15.88
2022-09-26T21:23:31.344Z,12.57
2022-09-26T21:26:01.276Z,14.13
2022-09-26T21:28:31.284Z,16.48
2022-09-26T21:31:05.415Z,13.70
2022-09-26T21:33:36.262Z,17.08
2022-09-26T21:36:06.352Z,13.63
2022-09-26T21:38:36.282Z,13.85
2022-09-26T21:41:07.336Z,12.60
2022-09-26T21:43:39.716Z,11.10
2022-09-26T21:46:09.808Z,14.07
2022-09-26T21:48:40.509Z,15.10
2022-09-26T21:51:11.370Z,12.77
2022-09-26T21:53:42.859Z,16.80
2022-09-26T21:56:18.804Z,15.25
2022-09-26T21:58:48.769Z,16.63
2022-09-26T22:01:19.160Z,16.20
2022-09-26T22:03:50.094Z,13.63
2022-09-26T22:06:20.582Z,16.73
2022-09-26T22:08:51.471Z,12.10
2022-09-26T22:11:21.896Z,14.63
2022-09-26T22:13:52.343Z,12.02
2022-09-26T22:16:22.536Z,12.32
2022-09-26T22:18:53.024Z,13.10
2022-09-26T22:21:23.656Z,11.93
2022-09-26T22:23:53.854Z,18.45
2022-09-26T22:26:23.837Z,12.23
2022-09-26T22:28:53.864Z,14.30
2022-09-26T22:31:23.953Z,9.82
2022-09-26T22:33:57.645Z,15.95
2022-09-26T22:38:57.745Z,19.15
2022-09-26T22:41:27.781Z,10.55
2022-09-26T22:43:57.864Z,12.98
2022-09-26T22:46:27.951Z,12.30
2022-09-26T22:48:58.018Z,14.93
2022-09-26T22:51:28.470Z,15.32
2022-09-26T22:53:58.597Z,13.55
2022-09-26T22:56:28.758Z,13.02
2022-09-26T22:58:58.939Z,13.52
2022-09-26T23:01:30.294Z,12.52
2022-09-26T23:04:01.615Z,13.05
2022-09-26T23:06:32.397Z,13.13
2022-09-26T23:09:02.540Z,13.95
2022-09-26T23:11:32.980Z,18.50
2022-09-26T23:14:03.084Z,13.85
2022-09-26T23:16:33.287Z,12.63
2022-09-26T23:19:03.734Z,15.38
2022-09-26T23:21:34.929Z,13.15
2022-09-26T23:24:06.004Z,14.90
2022-09-26T23:26:36.242Z,11.65
2022-09-26T23:29:06.397Z,14.60
2022-09-26T23:31:36.968Z,13.30
2022-09-26T23:34:07.667Z,13.55
2022-09-26T23:36:37.803Z,17.17
2022-09-26T23:39:08.167Z,13.30
2022-09-26T23:41:38.589Z,14.02
2022-09-26T23:44:08.985Z,13.52
2022-09-26T23:46:40.176Z,14.35
2022-09-26T23:49:10.317Z,18.00
2022-09-26T23:51:40.537Z,14.15
2022-09-26T23:54:10.637Z,13.88
2022-09-26T23:56:40.678Z,16.77
2022-09-26T23:59:10.662Z,18.55
